createdAt,value
2023-04-16T00:01:27.378Z,7.95
2023-04-16T00:03:55.051Z,8.27
2023-04-16T00:06:23.144Z,8.48
2023-04-16T00:08:51.663Z,9.88
2023-04-16T00:11:18.891Z,8.40
2023-04-16T00:13:48.350Z,7.95
2023-04-16T00:16:16.120Z,7.72
2023-04-16T00:18:43.388Z,9.20
2023-04-16T00:21:10.725Z,8.30
2023-04-16T00:23:38.419Z,7.63
2023-04-16T00:26:05.989Z,7.45
2023-04-16T00:28:33.214Z,7.95
2023-04-16T00:31:01.420Z,7.68
2023-04-16T00:33:30.187Z,7.72
2023-04-16T00:35:57.602Z,7.55
2023-04-16T00:38:24.920Z,7.07
2023-04-16T00:40:52.171Z,6.78
2023-04-16T00:43:23.065Z,7.00
2023-04-16T00:45:50.801Z,6.53
2023-04-16T00:48:20.412Z,6.53
2023-04-16T00:50:47.718Z,5.70
2023-04-16T00:53:15.002Z,6.10
2023-04-16T00:55:42.280Z,7.22
2023-04-16T00:58:09.467Z,6.85
2023-04-16T01:00:36.730Z,6.55
2023-04-16T01:03:04.558Z,5.85
2023-04-16T01:05:32.423Z,6.43
2023-04-16T01:08:01.149Z,6.68
2023-04-16T01:10:28.541Z,5.97
2023-04-16T01:12:55.840Z,6.88
2023-04-16T01:15:24.673Z,6.53
2023-04-16T01:17:51.950Z,6.53
2023-04-16T01:20:19.240Z,6.40
2023-04-16T01:22:46.525Z,5.97
2023-04-16T01:25:14.948Z,5.78
2023-04-16T01:27:42.226Z,6.43
2023-04-16T01:30:09.941Z,5.88
2023-04-16T01:32:38.955Z,4.90
2023-04-16T01:35:06.493Z,5.55
2023-04-16T01:37:33.850Z,5.50
2023-04-16T01:40:01.344Z,5.15
2023-04-16T01:42:28.684Z,5.22
2023-04-16T01:44:55.919Z,5.68
2023-04-16T01:47:23.180Z,5.38
2023-04-16T01:49:51.533Z,6.00
2023-04-16T01:52:18.875Z,5.65
2023-04-16T01:54:46.200Z,6.05
2023-04-16T01:57:13.624Z,5.28
2023-04-16T01:59:41.107Z,6.20
2023-04-16T02:02:14.625Z,6.50
2023-04-16T02:04:43.514Z,6.35
2023-04-16T02:07:11.745Z,6.22
2023-04-16T02:09:40.050Z,6.85
2023-04-16T02:12:07.528Z,6.90
2023-04-16T02:14:35.186Z,6.15
2023-04-16T02:17:02.765Z,7.53
2023-04-16T02:19:30.054Z,7.20
2023-04-16T02:21:57.308Z,8.38
2023-04-16T02:24:24.586Z,8.63
2023-04-16T02:26:51.824Z,9.27
2023-04-16T02:29:19.626Z,8.68
2023-04-16T02:31:47.127Z,10.43
2023-04-16T02:34:14.570Z,8.95
2023-04-16T02:36:42.001Z,10.07
2023-04-16T02:39:09.551Z,10.77
2023-04-16T02:41:38.567Z,10.05
2023-04-16T02:44:06.119Z,10.25
2023-04-16T02:46:33.353Z,9.88
2023-04-16T02:49:00.666Z,11.07
2023-04-16T02:51:27.982Z,10.55
2023-04-16T02:53:55.329Z,11.43
2023-04-16T02:56:22.575Z,9.30
2023-04-16T02:58:50.356Z,10.30
2023-04-16T03:01:18.167Z,10.40
2023-04-16T03:03:45.605Z,10.18
2023-04-16T03:06:12.922Z,10.07
2023-04-16T03:08:41.615Z,11.40
2023-04-16T03:11:08.823Z,9.50
2023-04-16T03:13:36.330Z,9.50
2023-04-16T03:16:03.715Z,9.45
2023-04-16T03:18:31.278Z,7.78
2023-04-16T03:20:58.484Z,7.35
2023-04-16T03:23:25.794Z,7.30
2023-04-16T03:25:53.015Z,6.68
2023-04-16T03:28:20.462Z,6.15
2023-04-16T03:30:52.734Z,6.90
2023-04-16T03:33:20.724Z,6.78
2023-04-16T03:35:55.415Z,7.30
2023-04-16T03:38:23.515Z,7.05
2023-04-16T03:40:50.736Z,7.07
2023-04-16T03:43:17.979Z,6.40
2023-04-16T03:45:46.237Z,6.03
2023-04-16T03:48:13.682Z,6.78
2023-04-16T03:50:41.047Z,6.38
2023-04-16T03:53:08.506Z,6.80
2023-04-16T03:55:36.131Z,6.45
2023-04-16T03:58:04.906Z,6.43
2023-04-16T04:00:32.185Z,5.90
2023-04-16T04:03:00.056Z,6.75
2023-04-16T04:05:27.467Z,6.45
2023-04-16T04:07:55.229Z,5.68
2023-04-16T04:10:22.505Z,5.75
2023-04-16T04:12:49.802Z,6.25
2023-04-16T04:15:17.232Z,6.82
2023-04-16T04:17:44.694Z,6.30
2023-04-16T04:20:12.373Z,6.70
2023-04-16T04:22:40.117Z,6.03
2023-04-16T04:25:08.757Z,5.35
2023-04-16T04:27:36.275Z,5.80
2023-04-16T04:30:04.923Z,6.32
2023-04-16T04:32:32.355Z,5.93
2023-04-16T04:35:03.144Z,5.45
2023-04-16T04:37:30.559Z,5.63
2023-04-16T04:39:58.162Z,5.97
2023-04-16T04:42:25.536Z,5.00
2023-04-16T04:44:52.795Z,5.68
2023-04-16T04:47:20.028Z,4.60
2023-04-16T04:49:47.359Z,5.55
2023-04-16T04:52:14.639Z,5.60
2023-04-16T04:54:41.918Z,5.32
2023-04-16T04:57:09.205Z,5.25
2023-04-16T04:59:36.784Z,4.75
2023-04-16T05:02:04.752Z,6.05
2023-04-16T05:04:32.141Z,5.53
2023-04-16T05:06:59.410Z,5.70
2023-04-16T05:09:26.811Z,4.75
2023-04-16T05:11:54.084Z,4.82
2023-04-16T05:14:21.323Z,4.32
2023-04-16T05:16:49.777Z,5.05
2023-04-16T05:19:17.008Z,4.25
2023-04-16T05:21:44.239Z,4.72
2023-04-16T05:24:13.076Z,5.18
2023-04-16T05:26:42.078Z,4.63
2023-04-16T05:29:09.469Z,4.53
2023-04-16T05:31:37.032Z,4.85
2023-04-16T05:34:04.242Z,4.80
2023-04-16T05:36:34.060Z,4.75
2023-04-16T05:39:01.303Z,4.82
2023-04-16T05:41:28.557Z,5.25
2023-04-16T05:43:56.293Z,4.93
2023-04-16T05:46:23.701Z,4.95
2023-04-16T05:48:50.918Z,4.25
2023-04-16T05:51:18.258Z,4.32
2023-04-16T05:53:45.720Z,4.53
2023-04-16T05:56:12.962Z,4.20
2023-04-16T05:58:40.324Z,3.88
2023-04-16T06:01:07.617Z,4.35
2023-04-16T06:03:35.267Z,4.50
2023-04-16T06:06:02.752Z,4.47
2023-04-16T06:08:30.567Z,4.25
2023-04-16T06:10:57.877Z,3.40
2023-04-16T06:13:25.155Z,4.13
2023-04-16T06:15:52.561Z,3.75
2023-04-16T06:18:21.684Z,4.97
2023-04-16T06:20:48.953Z,3.95
2023-04-16T06:23:16.303Z,6.93
2023-04-16T06:25:43.497Z,7.28
2023-04-16T06:28:10.822Z,6.00
2023-04-16T06:30:38.072Z,7.05
2023-04-16T06:33:05.452Z,6.50
2023-04-16T06:35:33.030Z,5.60
2023-04-16T06:38:00.344Z,5.85
2023-04-16T06:40:27.644Z,6.15
2023-04-16T06:42:55.714Z,4.07
2023-04-16T06:45:22.882Z,5.72
2023-04-16T06:47:51.169Z,5.38
2023-04-16T06:50:18.477Z,4.30
2023-04-16T06:52:46.408Z,4.28
2023-04-16T06:55:13.787Z,5.50
2023-04-16T06:57:41.114Z,5.20
2023-04-16T07:00:09.252Z,4.72
2023-04-16T07:02:37.172Z,4.72
2023-04-16T07:05:04.774Z,5.00
2023-04-16T07:07:32.736Z,4.72
2023-04-16T07:10:00.370Z,4.78
2023-04-16T07:12:27.625Z,5.55
2023-04-16T07:14:55.119Z,5.50
2023-04-16T07:17:22.486Z,3.85
2023-04-16T07:19:50.350Z,4.38
2023-04-16T07:22:17.617Z,5.85
2023-04-16T07:24:44.987Z,5.00
2023-04-16T07:27:13.099Z,5.15
2023-04-16T07:29:40.999Z,4.28
2023-04-16T07:32:08.403Z,4.78
2023-04-16T07:34:35.836Z,4.32
2023-04-16T07:37:03.080Z,3.60
2023-04-16T07:39:30.515Z,3.92
2023-04-16T07:41:57.767Z,3.45
2023-04-16T07:44:24.951Z,3.47
2023-04-16T07:46:52.308Z,2.42
2023-04-16T07:49:20.035Z,3.17
2023-04-16T07:51:47.402Z,2.72
2023-04-16T07:54:14.618Z,2.55
2023-04-16T07:56:41.913Z,2.83
2023-04-16T07:59:22.061Z,3.08
2023-04-16T08:01:52.124Z,2.88
2023-04-16T08:04:24.585Z,2.95
2023-04-16T08:06:53.883Z,3.65
2023-04-16T08:09:22.804Z,3.08
2023-04-16T08:11:50.242Z,2.83
2023-04-16T08:14:17.771Z,2.50
2023-04-16T08:16:45.073Z,3.30
2023-04-16T08:19:12.557Z,2.80
2023-04-16T08:21:41.090Z,2.95
2023-04-16T08:24:08.847Z,2.97
2023-04-16T08:26:36.088Z,3.13
2023-04-16T08:29:03.305Z,3.13
2023-04-16T08:31:30.671Z,3.25
2023-04-16T08:33:58.008Z,2.38
2023-04-16T08:36:25.651Z,2.20
2023-04-16T08:38:53.371Z,2.53
2023-04-16T08:41:20.585Z,3.10
2023-04-16T08:43:47.820Z,3.40
2023-04-16T08:46:15.720Z,3.35
2023-04-16T08:48:43.909Z,2.95
2023-04-16T08:51:11.300Z,4.07
2023-04-16T08:54:00.514Z,2.88
2023-04-16T08:56:27.819Z,3.35
2023-04-16T08:58:55.101Z,2.83
2023-04-16T09:01:22.444Z,3.25
2023-04-16T09:03:49.929Z,2.80
2023-04-16T09:06:17.504Z,4.03
2023-04-16T09:08:45.861Z,5.10
2023-04-16T09:11:19.224Z,2.63
2023-04-16T09:13:47.017Z,2.33
2023-04-16T09:16:14.571Z,2.65
2023-04-16T09:18:41.926Z,2.85
2023-04-16T09:21:12.421Z,2.58
2023-04-16T09:23:40.347Z,2.58
2023-04-16T09:26:07.589Z,6.15
2023-04-16T09:28:48.234Z,7.80
2023-04-16T09:31:19.196Z,5.22
2023-04-16T09:34:06.144Z,9.30
2023-04-16T09:36:33.681Z,8.20
2023-04-16T09:39:01.194Z,3.88
2023-04-16T09:41:32.994Z,3.97
2023-04-16T09:44:07.100Z,9.65
2023-04-16T09:46:42.699Z,4.38
2023-04-16T09:49:16.775Z,2.90
2023-04-16T09:51:45.995Z,2.80
2023-04-16T09:54:13.600Z,2.97
2023-04-16T09:56:43.344Z,3.40
2023-04-16T09:59:20.454Z,3.80
2023-04-16T10:01:49.660Z,3.83
2023-04-16T10:04:17.372Z,5.75
2023-04-16T10:06:46.920Z,4.15
2023-04-16T10:09:14.125Z,4.72
2023-04-16T10:11:41.391Z,4.45
2023-04-16T10:14:09.383Z,5.22
2023-04-16T10:16:36.769Z,4.30
2023-04-16T10:19:04.007Z,4.60
2023-04-16T10:21:34.281Z,3.58
2023-04-16T10:24:01.926Z,14.38
2023-04-16T10:26:30.648Z,7.63
2023-04-16T10:28:58.689Z,11.13
2023-04-16T10:31:25.978Z,4.93
2023-04-16T10:33:53.306Z,4.22
2023-04-16T10:36:24.194Z,4.88
2023-04-16T10:38:52.516Z,10.90
2023-04-16T10:41:20.127Z,9.10
2023-04-16T10:43:48.361Z,8.10
2023-04-16T10:46:24.702Z,5.57
2023-04-16T10:48:56.101Z,4.28
2023-04-16T10:54:08.674Z,5.70
2023-04-16T10:56:36.406Z,5.72
2023-04-16T10:59:07.417Z,2.50
2023-04-16T11:01:37.520Z,5.15
2023-04-16T11:04:20.166Z,2.17
2023-04-16T11:07:13.871Z,2.70
2023-04-16T11:09:49.976Z,6.35
2023-04-16T11:12:18.630Z,5.57
2023-04-16T11:14:52.610Z,6.10
2023-04-16T11:17:20.799Z,6.65
2023-04-16T11:19:48.239Z,4.60
2023-04-16T11:22:17.415Z,1.98
2023-04-16T11:24:46.011Z,2.75
2023-04-16T11:27:14.576Z,2.50
2023-04-16T11:29:42.101Z,2.60
2023-04-16T11:32:09.377Z,2.63
2023-04-16T11:34:46.100Z,2.28
2023-04-16T11:37:13.397Z,3.70
2023-04-16T11:39:51.243Z,6.32
2023-04-16T11:42:22.902Z,7.35
2023-04-16T11:44:54.490Z,10.77
2023-04-16T11:47:24.000Z,6.15
2023-04-16T11:49:51.519Z,3.85
2023-04-16T11:52:30.336Z,4.20
2023-04-16T11:54:58.802Z,5.40
2023-04-16T11:57:29.758Z,8.82
2023-04-16T12:00:02.531Z,3.58
2023-04-16T12:02:41.043Z,7.78
2023-04-16T12:05:28.733Z,5.60
2023-04-16T12:07:56.376Z,3.80
2023-04-16T12:10:23.898Z,7.47
2023-04-16T12:12:52.284Z,4.47
2023-04-16T12:15:19.504Z,6.28
2023-04-16T12:17:47.325Z,6.13
2023-04-16T12:20:15.504Z,4.80
2023-04-16T12:22:47.448Z,5.35
2023-04-16T12:25:16.554Z,10.18
2023-04-16T12:27:55.974Z,4.55
2023-04-16T12:30:24.276Z,2.90
2023-04-16T12:32:53.211Z,4.75
2023-04-16T12:35:33.607Z,5.90
2023-04-16T12:38:01.528Z,7.00
2023-04-16T12:40:28.897Z,3.53
2023-04-16T12:42:56.172Z,3.42
2023-04-16T12:45:24.309Z,2.47
2023-04-16T12:47:51.640Z,5.70
2023-04-16T12:50:18.944Z,2.72
2023-04-16T12:52:46.460Z,6.57
2023-04-16T12:55:14.231Z,5.72
2023-04-16T12:57:41.469Z,4.03
2023-04-16T13:00:10.775Z,3.70
2023-04-16T13:02:38.419Z,2.58
2023-04-16T13:05:06.213Z,3.83
2023-04-16T13:07:34.103Z,6.28
2023-04-16T13:10:01.325Z,3.65
2023-04-16T13:12:28.638Z,4.43
2023-04-16T13:14:56.076Z,2.95
2023-04-16T13:17:23.352Z,6.53
2023-04-16T13:19:50.685Z,8.77
2023-04-16T13:22:17.944Z,5.05
2023-04-16T13:24:46.051Z,2.70
2023-04-16T13:27:15.200Z,2.80
2023-04-16T13:29:42.621Z,2.90
2023-04-16T13:32:09.933Z,7.22
2023-04-16T13:34:37.258Z,8.55
2023-04-16T13:37:04.649Z,8.07
2023-04-16T13:39:31.884Z,4.85
2023-04-16T13:41:59.259Z,3.40
2023-04-16T13:44:26.569Z,3.38
2023-04-16T13:46:53.911Z,3.20
2023-04-16T13:49:21.470Z,6.03
2023-04-16T13:51:48.722Z,3.28
2023-04-16T13:54:16.041Z,2.60
2023-04-16T13:56:43.367Z,3.72
2023-04-16T13:59:10.994Z,3.10
2023-04-16T14:01:39.324Z,2.65
2023-04-16T14:04:07.359Z,6.30
2023-04-16T14:06:35.582Z,5.90
2023-04-16T14:09:04.166Z,6.70
2023-04-16T14:11:31.668Z,9.38
2023-04-16T14:13:58.953Z,6.90
2023-04-16T14:16:27.360Z,3.28
2023-04-16T14:18:54.732Z,4.00
2023-04-16T14:21:22.009Z,6.75
2023-04-16T14:23:49.400Z,7.07
2023-04-16T14:26:16.665Z,5.30
2023-04-16T14:28:44.250Z,4.88
2023-04-16T14:31:11.470Z,4.30
2023-04-16T14:33:38.846Z,6.53
2023-04-16T14:36:06.552Z,9.35
2023-04-16T14:38:33.959Z,4.18
2023-04-16T14:41:01.336Z,3.92
2023-04-16T14:43:28.749Z,3.72
2023-04-16T14:45:57.143Z,5.25
2023-04-16T14:48:24.978Z,3.97
2023-04-16T14:50:52.204Z,4.15
2023-04-16T14:53:19.799Z,3.38
2023-04-16T14:55:47.624Z,3.05
2023-04-16T14:58:14.979Z,4.60
2023-04-16T15:00:42.237Z,7.80
2023-04-16T15:03:09.666Z,5.82
2023-04-16T15:05:37.373Z,9.02
2023-04-16T15:08:05.495Z,5.40
2023-04-16T15:10:33.498Z,7.43
2023-04-16T15:13:01.009Z,4.55
2023-04-16T15:15:28.335Z,4.80
2023-04-16T15:17:57.026Z,9.43
2023-04-16T15:20:24.523Z,7.65
2023-04-16T15:22:51.964Z,10.15
2023-04-16T15:25:19.260Z,6.50
2023-04-16T15:27:46.926Z,5.65
2023-04-16T15:30:14.485Z,5.72
2023-04-16T15:32:41.780Z,14.32
2023-04-16T15:35:14.436Z,11.43
2023-04-16T15:37:41.803Z,5.00
2023-04-16T15:40:09.234Z,4.45
2023-04-16T15:42:36.737Z,4.78
2023-04-16T15:45:04.316Z,4.30
2023-04-16T15:47:31.635Z,13.23
2023-04-16T15:49:58.914Z,15.00
2023-04-16T15:52:26.319Z,9.60
2023-04-16T15:54:54.600Z,4.72
2023-04-16T15:57:21.801Z,7.38
2023-04-16T16:00:05.456Z,13.48
2023-04-16T16:02:34.851Z,7.63
2023-04-16T16:05:03.346Z,9.82
2023-04-16T16:07:30.786Z,5.68
2023-04-16T16:09:58.406Z,6.68
2023-04-16T16:12:25.728Z,4.82
2023-04-16T16:14:53.247Z,5.00
2023-04-16T16:17:20.761Z,6.25
2023-04-16T16:19:48.014Z,5.95
2023-04-16T16:22:20.381Z,5.40
2023-04-16T16:24:53.417Z,4.55
2023-04-16T16:27:20.989Z,17.38
2023-04-16T16:29:48.195Z,9.15
2023-04-16T16:32:16.471Z,12.68
2023-04-16T16:34:43.709Z,4.93
2023-04-16T16:37:10.952Z,11.00
2023-04-16T16:39:39.885Z,6.47
2023-04-16T16:42:09.119Z,13.48
2023-04-16T16:44:36.788Z,4.60
2023-04-16T16:47:04.131Z,4.55
2023-04-16T16:49:31.543Z,6.13
2023-04-16T16:51:58.797Z,4.90
2023-04-16T16:54:26.170Z,4.85
2023-04-16T16:56:53.428Z,3.90
2023-04-16T16:59:20.780Z,3.50
2023-04-16T17:01:47.997Z,3.08
2023-04-16T17:06:42.889Z,3.42
2023-04-16T17:09:11.334Z,3.65
2023-04-16T17:11:38.761Z,4.43
2023-04-16T17:14:06.040Z,5.90
2023-04-16T17:16:33.735Z,4.25
2023-04-16T17:19:01.350Z,3.42
2023-04-16T17:21:28.582Z,3.70
2023-04-16T17:23:58.092Z,3.70
2023-04-16T17:26:25.731Z,3.65
2023-04-16T17:28:54.146Z,3.80
2023-04-16T17:31:22.949Z,3.58
2023-04-16T17:33:50.697Z,3.28
2023-04-16T17:36:19.759Z,3.00
2023-04-16T17:38:46.981Z,8.00
2023-04-16T17:41:14.246Z,4.28
2023-04-16T17:43:41.621Z,3.28
2023-04-16T17:46:11.243Z,4.28
2023-04-16T17:48:38.982Z,6.85
2023-04-16T17:51:12.790Z,3.00
2023-04-16T17:53:39.992Z,3.40
2023-04-16T17:56:07.691Z,5.78
2023-04-16T17:58:36.372Z,3.58
2023-04-16T18:01:03.894Z,3.60
2023-04-16T18:03:32.316Z,3.78
2023-04-16T18:05:59.654Z,3.38
2023-04-16T18:08:27.676Z,3.58
2023-04-16T18:10:55.643Z,3.85
2023-04-16T18:13:24.213Z,3.00
2023-04-16T18:15:51.802Z,3.45
2023-04-16T18:18:20.594Z,5.35
2023-04-16T18:20:48.299Z,4.95
2023-04-16T18:23:15.743Z,3.88
2023-04-16T18:25:43.143Z,3.20
2023-04-16T18:28:13.653Z,3.30
2023-04-16T18:30:41.458Z,3.75
2023-04-16T18:33:34.288Z,3.97
2023-04-16T18:35:55.957Z,3.20
2023-04-16T18:38:24.290Z,3.38
2023-04-16T18:40:51.557Z,3.63
2023-04-16T18:43:19.000Z,3.33
2023-04-16T18:45:46.199Z,3.78
2023-04-16T18:48:13.396Z,3.88
2023-04-16T18:50:40.625Z,3.50
2023-04-16T18:53:07.930Z,3.53
2023-04-16T18:55:35.311Z,3.97
2023-04-16T18:58:02.628Z,4.97
2023-04-16T19:00:30.018Z,8.68
2023-04-16T19:02:57.392Z,4.00
2023-04-16T19:05:24.745Z,4.30
2023-04-16T19:07:52.611Z,4.65
2023-04-16T19:10:19.820Z,4.68
2023-04-16T19:12:47.065Z,5.07
2023-04-16T19:15:14.950Z,4.32
2023-04-16T19:17:42.910Z,4.85
2023-04-16T19:20:11.470Z,4.07
2023-04-16T19:22:39.392Z,4.40
2023-04-16T19:25:07.250Z,4.00
2023-04-16T19:27:34.907Z,4.38
2023-04-16T19:30:03.171Z,4.57
2023-04-16T19:32:31.046Z,4.57
2023-04-16T19:34:58.321Z,5.28
2023-04-16T19:37:25.763Z,5.45
2023-04-16T19:39:54.749Z,5.80
2023-04-16T19:42:21.992Z,5.32
2023-04-16T19:44:49.267Z,5.45
2023-04-16T19:47:16.508Z,6.03
2023-04-16T19:49:43.862Z,7.30
2023-04-16T19:52:11.238Z,7.50
2023-04-16T19:54:38.996Z,6.80
2023-04-16T19:57:06.438Z,6.70
2023-04-16T19:59:34.157Z,5.95
2023-04-16T20:02:01.676Z,5.47
2023-04-16T20:04:29.381Z,6.45
2023-04-16T20:06:56.985Z,5.10
2023-04-16T20:09:25.343Z,4.88
2023-04-16T20:11:52.714Z,4.50
2023-04-16T20:14:19.913Z,4.47
2023-04-16T20:16:47.408Z,5.13
2023-04-16T20:19:18.930Z,4.30
2023-04-16T20:21:46.166Z,4.07
2023-04-16T20:24:15.546Z,4.18
2023-04-16T20:26:43.477Z,4.07
2023-04-16T20:29:11.219Z,3.83
2023-04-16T20:31:38.815Z,4.20
2023-04-16T20:34:06.053Z,4.38
2023-04-16T20:36:33.535Z,3.83
2023-04-16T20:39:02.246Z,5.10
2023-04-16T20:41:30.259Z,5.40
2023-04-16T20:43:57.490Z,5.18
2023-04-16T20:46:24.795Z,5.68
2023-04-16T20:48:52.265Z,5.47
2023-04-16T20:51:19.492Z,6.43
2023-04-16T20:53:46.721Z,5.32
2023-04-16T20:56:15.098Z,5.50
2023-04-16T20:58:43.665Z,5.97
2023-04-16T21:01:11.114Z,5.90
2023-04-16T21:03:38.664Z,5.43
2023-04-16T21:06:06.161Z,4.40
2023-04-16T21:08:33.411Z,6.07
2023-04-16T21:11:01.638Z,5.07
2023-04-16T21:13:29.261Z,5.05
2023-04-16T21:15:56.596Z,4.28
2023-04-16T21:18:24.110Z,3.83
2023-04-16T21:20:51.341Z,3.53
2023-04-16T21:23:18.844Z,3.38
2023-04-16T21:25:46.143Z,3.45
2023-04-16T21:28:13.618Z,3.08
2023-04-16T21:30:41.402Z,3.03
2023-04-16T21:33:08.717Z,2.65
2023-04-16T21:35:36.113Z,2.97
2023-04-16T21:38:03.326Z,3.05
2023-04-16T21:40:30.920Z,3.33
2023-04-16T21:42:58.166Z,2.88
2023-04-16T21:45:25.377Z,2.65
2023-04-16T21:47:52.729Z,2.38
2023-04-16T21:50:20.032Z,3.38
2023-04-16T21:52:47.339Z,3.30
2023-04-16T21:55:14.848Z,3.30
2023-04-16T21:57:42.149Z,3.20
2023-04-16T22:00:13.986Z,3.08
2023-04-16T22:02:42.757Z,2.90
2023-04-16T22:05:11.388Z,2.60
2023-04-16T22:07:39.637Z,2.53
2023-04-16T22:10:08.791Z,3.00
2023-04-16T22:12:39.942Z,2.80
2023-04-16T22:15:08.173Z,3.28
2023-04-16T22:17:36.023Z,2.90
2023-04-16T22:20:08.956Z,3.15
2023-04-16T22:22:36.901Z,2.83
2023-04-16T22:25:04.504Z,2.90
2023-04-16T22:27:31.825Z,2.65
2023-04-16T22:29:59.450Z,3.25
2023-04-16T22:32:27.135Z,3.25
2023-04-16T22:34:54.435Z,3.20
2023-04-16T22:37:21.697Z,2.65
2023-04-16T22:39:49.007Z,3.15
2023-04-16T22:42:16.275Z,3.33
2023-04-16T22:44:43.524Z,2.88
2023-04-16T22:47:10.979Z,3.17
2023-04-16T22:49:38.348Z,2.67
2023-04-16T22:52:06.157Z,3.33
2023-04-16T22:54:34.274Z,3.20
2023-04-16T22:57:01.986Z,3.00
2023-04-16T22:59:29.401Z,3.38
2023-04-16T23:01:56.689Z,3.03
2023-04-16T23:04:24.042Z,3.20
2023-04-16T23:06:51.518Z,3.95
2023-04-16T23:09:20.568Z,3.03
2023-04-16T23:11:47.798Z,2.65
2023-04-16T23:14:16.820Z,3.28
2023-04-16T23:16:44.272Z,3.60
2023-04-16T23:19:14.884Z,3.47
2023-04-16T23:21:42.340Z,3.13
2023-04-16T23:24:09.540Z,3.17
2023-04-16T23:26:36.907Z,3.17
2023-04-16T23:29:04.300Z,2.92
2023-04-16T23:31:31.702Z,3.10
2023-04-16T23:33:58.940Z,3.30
2023-04-16T23:36:26.998Z,3.45
2023-04-16T23:38:54.178Z,3.45
2023-04-16T23:41:23.299Z,3.47
2023-04-16T23:43:50.695Z,3.63
2023-04-16T23:46:18.131Z,3.33
2023-04-16T23:48:45.342Z,3.10
2023-04-16T23:51:12.648Z,3.70
2023-04-16T23:53:40.873Z,3.03
2023-04-16T23:56:10.998Z,3.78
2023-04-16T23:58:38.268Z,3.30
